createdAt,value
2023-05-19T00:02:05.682Z,11.61
2023-05-19T00:05:13.138Z,11.58
2023-05-19T00:08:19.881Z,11.60
2023-05-19T00:11:23.911Z,11.61
2023-05-19T00:14:26.999Z,11.65
2023-05-19T00:17:30.258Z,11.68
2023-05-19T00:20:33.811Z,11.64
2023-05-19T00:23:37.364Z,11.64
2023-05-19T00:26:40.750Z,11.57
2023-05-19T00:29:43.774Z,11.58
2023-05-19T00:32:46.945Z,11.57
2023-05-19T00:35:49.957Z,11.61
2023-05-19T00:38:52.956Z,11.59
2023-05-19T00:41:56.294Z,11.59
2023-05-19T00:44:59.288Z,11.64
2023-05-19T00:48:02.539Z,11.60
2023-05-19T00:51:06.726Z,11.57
2023-05-19T00:54:10.449Z,11.56
2023-05-19T00:57:15.040Z,11.56
2023-05-19T01:00:21.428Z,11.59
2023-05-19T01:03:25.423Z,11.58
2023-05-19T01:06:29.855Z,11.59
2023-05-19T01:09:33.532Z,11.61
2023-05-19T01:12:37.388Z,11.65
2023-05-19T01:15:57.583Z,11.68
2023-05-19T01:19:26.728Z,11.72
2023-05-19T01:22:46.220Z,11.73
2023-05-19T01:26:15.362Z,11.73
2023-05-19T01:29:54.770Z,11.73
2023-05-19T01:33:02.010Z,11.74
2023-05-19T01:36:08.437Z,11.73
2023-05-19T01:39:14.128Z,11.72
2023-05-19T01:42:20.168Z,11.72
2023-05-19T01:45:24.268Z,11.75
2023-05-19T01:48:28.896Z,11.82
2023-05-19T01:51:33.860Z,11.76
2023-05-19T01:54:38.044Z,11.80
2023-05-19T01:58:01.461Z,11.76
2023-05-19T02:01:28.987Z,11.73
2023-05-19T02:04:40.550Z,11.74
2023-05-19T02:08:00.469Z,11.70
2023-05-19T02:11:11.118Z,11.68
2023-05-19T02:14:20.673Z,11.69
2023-05-19T02:17:27.789Z,11.69
2023-05-19T02:20:33.406Z,11.76
2023-05-19T02:23:36.550Z,11.76
2023-05-19T02:26:40.783Z,11.73
2023-05-19T02:29:44.104Z,11.75
2023-05-19T02:32:47.285Z,11.73
2023-05-19T02:35:50.898Z,11.72
2023-05-19T02:38:54.299Z,11.68
2023-05-19T02:41:57.318Z,11.71
2023-05-19T02:45:01.743Z,11.71
2023-05-19T02:48:05.205Z,11.77
2023-05-19T02:51:10.949Z,11.79
2023-05-19T02:54:13.824Z,11.78
2023-05-19T02:57:16.857Z,11.78
2023-05-19T03:00:20.198Z,11.82
2023-05-19T03:03:23.645Z,11.78
2023-05-19T03:06:26.906Z,11.79
2023-05-19T03:09:30.004Z,11.85
2023-05-19T03:12:33.736Z,11.82
2023-05-19T03:15:37.123Z,11.85
2023-05-19T03:18:40.935Z,11.87
2023-05-19T03:21:44.010Z,11.89
2023-05-19T03:24:47.684Z,11.90
2023-05-19T03:27:53.599Z,11.87
2023-05-19T03:30:57.191Z,11.89
2023-05-19T03:34:04.595Z,11.87
2023-05-19T03:37:08.129Z,11.86
2023-05-19T03:40:13.955Z,11.88
2023-05-19T03:43:19.386Z,11.84
2023-05-19T03:46:28.930Z,11.87
2023-05-19T03:49:48.537Z,11.87
2023-05-19T03:53:14.619Z,11.87
2023-05-19T03:56:18.350Z,11.89
2023-05-19T03:59:21.438Z,11.90
2023-05-19T04:02:24.793Z,11.90
2023-05-19T04:05:28.214Z,11.93
2023-05-19T04:08:32.228Z,11.88
2023-05-19T04:11:35.222Z,11.93
2023-05-19T04:14:38.168Z,11.95
2023-05-19T04:17:41.977Z,11.98
2023-05-19T04:20:45.674Z,11.99
2023-05-19T04:23:48.897Z,11.98
2023-05-19T04:26:54.377Z,11.91
2023-05-19T04:29:58.327Z,11.98
2023-05-19T04:33:04.852Z,12.02
2023-05-19T04:36:11.607Z,11.98
2023-05-19T04:39:17.072Z,12.02
2023-05-19T04:42:21.892Z,12.03
2023-05-19T04:45:28.164Z,12.06
2023-05-19T04:48:34.716Z,12.06
2023-05-19T04:51:41.399Z,12.08
2023-05-19T04:54:45.492Z,12.11
2023-05-19T04:57:49.973Z,12.12
2023-05-19T05:00:56.258Z,12.17
2023-05-19T05:03:59.524Z,12.17
2023-05-19T05:10:20.560Z,12.22
2023-05-19T05:13:24.930Z,12.21
2023-05-19T05:16:32.232Z,12.19
2023-05-19T05:19:36.251Z,12.30
2023-05-19T05:22:39.949Z,12.31
2023-05-19T05:25:44.909Z,12.34
2023-05-19T05:28:48.188Z,12.35
2023-05-19T05:31:51.318Z,12.38
2023-05-19T05:34:54.762Z,12.39
2023-05-19T05:37:58.477Z,12.44
2023-05-19T05:41:03.151Z,12.53
2023-05-19T05:44:07.177Z,12.58
2023-05-19T05:47:16.439Z,12.65
2023-05-19T05:50:24.223Z,12.72
2023-05-19T05:53:32.350Z,12.78
2023-05-19T05:56:37.644Z,12.86
2023-05-19T05:59:45.547Z,12.88
2023-05-19T06:02:53.270Z,12.89
2023-05-19T06:05:59.279Z,12.89
2023-05-19T06:09:05.022Z,12.91
2023-05-19T06:12:09.191Z,12.96
2023-05-19T06:15:17.487Z,13.06
2023-05-19T06:18:46.948Z,13.10
2023-05-19T06:21:51.490Z,13.14
2023-05-19T06:24:54.753Z,13.15
2023-05-19T06:27:57.984Z,13.10
2023-05-19T06:31:01.167Z,13.22
2023-05-19T06:34:24.417Z,13.20
2023-05-19T06:37:27.469Z,13.25
2023-05-19T06:40:32.408Z,13.35
2023-05-19T06:43:36.157Z,13.38
2023-05-19T06:46:40.227Z,13.47
2023-05-19T06:49:45.103Z,13.51
2023-05-19T06:52:48.618Z,13.77
2023-05-19T06:55:59.375Z,13.80
2023-05-19T06:59:04.885Z,13.86
2023-05-19T07:02:12.347Z,13.83
2023-05-19T07:05:16.418Z,13.84
2023-05-19T07:08:24.209Z,13.93
2023-05-19T07:11:27.522Z,13.92
2023-05-19T07:14:34.223Z,14.04
2023-05-19T07:17:37.487Z,14.06
2023-05-19T07:20:41.484Z,13.91
2023-05-19T07:23:44.978Z,14.02
2023-05-19T07:26:48.411Z,14.06
2023-05-19T07:29:51.656Z,14.18
2023-05-19T07:32:58.121Z,14.14
2023-05-19T07:36:31.354Z,14.27
2023-05-19T07:39:36.202Z,14.28
2023-05-19T07:42:39.442Z,14.27
2023-05-19T07:45:42.586Z,14.21
2023-05-19T07:48:45.865Z,14.26
2023-05-19T07:51:55.853Z,14.25
2023-05-19T07:54:59.898Z,14.43
2023-05-19T07:58:29.255Z,14.53
2023-05-19T08:01:32.947Z,14.76
2023-05-19T08:04:36.886Z,14.85
2023-05-19T08:07:40.347Z,15.05
2023-05-19T08:10:43.733Z,15.21
2023-05-19T08:13:49.084Z,15.38
2023-05-19T08:16:52.167Z,15.54
2023-05-19T08:19:55.660Z,15.85
2023-05-19T08:22:58.807Z,16.04
2023-05-19T08:26:06.847Z,16.24
2023-05-19T08:29:10.077Z,16.22
2023-05-19T08:32:13.560Z,16.21
2023-05-19T08:35:16.988Z,16.37
2023-05-19T08:38:20.430Z,16.42
2023-05-19T08:41:23.735Z,16.42
2023-05-19T08:44:27.551Z,16.53
2023-05-19T08:47:33.467Z,16.71
2023-05-19T08:50:42.738Z,17.07
2023-05-19T08:53:50.991Z,17.26
2023-05-19T08:56:54.388Z,17.46
2023-05-19T08:59:58.915Z,17.58
2023-05-19T09:03:17.353Z,17.54
2023-05-19T09:06:26.822Z,17.47
2023-05-19T09:09:30.836Z,17.28
2023-05-19T09:12:34.426Z,17.31
2023-05-19T09:15:39.363Z,17.37
2023-05-19T09:18:56.938Z,17.29
2023-05-19T09:22:03.824Z,17.36
2023-05-19T09:25:17.580Z,17.54
2023-05-19T09:28:25.632Z,17.65
2023-05-19T09:31:33.472Z,17.73
2023-05-19T09:34:42.318Z,17.60
2023-05-19T09:37:46.392Z,17.46
2023-05-19T09:40:52.724Z,17.45
2023-05-19T09:44:00.213Z,17.33
2023-05-19T09:47:03.853Z,17.33
2023-05-19T09:50:09.008Z,17.48
2023-05-19T09:53:15.483Z,17.49
2023-05-19T09:56:23.846Z,17.67
2023-05-19T09:59:31.320Z,17.48
2023-05-19T10:02:36.984Z,17.46
2023-05-19T10:05:43.235Z,17.67
2023-05-19T10:08:48.156Z,17.89
2023-05-19T10:11:55.856Z,18.00
2023-05-19T10:14:59.744Z,18.20
2023-05-19T10:18:03.520Z,18.49
2023-05-19T10:21:08.336Z,18.22
2023-05-19T10:24:12.783Z,18.35
2023-05-19T10:27:17.954Z,18.36
2023-05-19T10:30:30.261Z,18.46
2023-05-19T10:33:56.674Z,18.59
2023-05-19T10:37:14.022Z,18.24
2023-05-19T10:40:29.597Z,18.35
2023-05-19T10:43:45.202Z,18.53
2023-05-19T10:46:48.407Z,18.93
2023-05-19T10:49:56.141Z,18.92
2023-05-19T10:53:00.352Z,19.14
2023-05-19T10:56:04.386Z,19.45
2023-05-19T10:59:08.192Z,19.63
2023-05-19T11:02:41.541Z,19.71
2023-05-19T11:05:51.071Z,19.78
2023-05-19T11:08:57.525Z,19.75
2023-05-19T11:12:05.813Z,19.89
2023-05-19T11:15:24.145Z,19.95
2023-05-19T11:18:27.124Z,20.24
2023-05-19T11:21:52.377Z,20.43
2023-05-19T11:24:55.926Z,20.48
2023-05-19T11:27:59.298Z,20.34
2023-05-19T11:31:02.877Z,20.31
2023-05-19T11:34:09.478Z,20.56
2023-05-19T11:37:12.810Z,20.74
2023-05-19T11:40:15.977Z,20.78
2023-05-19T11:43:19.581Z,20.74
2023-05-19T11:46:23.234Z,20.86
2023-05-19T11:49:29.207Z,20.97
2023-05-19T11:52:32.459Z,21.20
2023-05-19T11:55:35.628Z,21.18
2023-05-19T11:58:38.934Z,20.88
2023-05-19T12:01:42.540Z,20.90
2023-05-19T12:04:46.596Z,20.83
2023-05-19T12:07:51.693Z,20.70
2023-05-19T12:10:55.031Z,20.86
2023-05-19T12:14:02.091Z,21.20
2023-05-19T12:17:13.318Z,21.18
2023-05-19T12:20:16.717Z,21.29
2023-05-19T12:23:20.386Z,21.11
2023-05-19T12:26:23.498Z,21.25
2023-05-19T12:29:31.199Z,21.53
2023-05-19T12:32:36.269Z,21.76
2023-05-19T12:35:39.448Z,21.61
2023-05-19T12:38:43.714Z,21.53
2023-05-19T12:41:47.460Z,21.44
2023-05-19T12:44:52.806Z,21.51
2023-05-19T12:47:56.915Z,21.40
2023-05-19T12:51:00.345Z,21.65
2023-05-19T12:54:05.058Z,21.62
2023-05-19T12:57:11.069Z,21.62
2023-05-19T13:00:25.327Z,21.75
2023-05-19T13:03:28.498Z,21.74
2023-05-19T13:06:33.191Z,21.83
2023-05-19T13:09:36.618Z,21.76
2023-05-19T13:12:39.659Z,21.82
2023-05-19T13:15:45.242Z,21.74
2023-05-19T13:18:48.585Z,21.84
2023-05-19T13:21:52.221Z,21.80
2023-05-19T13:24:58.852Z,21.64
2023-05-19T13:28:05.903Z,21.34
2023-05-19T13:31:09.379Z,20.96
2023-05-19T13:34:12.493Z,20.79
2023-05-19T13:37:15.799Z,20.79
2023-05-19T13:40:19.409Z,20.83
2023-05-19T13:43:23.188Z,20.91
2023-05-19T13:46:36.730Z,20.92
2023-05-19T13:49:47.862Z,20.87
2023-05-19T13:52:50.943Z,21.04
2023-05-19T13:55:55.273Z,20.67
2023-05-19T13:58:58.617Z,20.63
2023-05-19T14:02:02.921Z,20.75
2023-05-19T14:05:07.052Z,20.65
2023-05-19T14:08:11.473Z,20.65
2023-05-19T14:11:21.727Z,20.77
2023-05-19T14:14:25.291Z,20.77
2023-05-19T14:17:30.865Z,20.79
2023-05-19T14:20:34.550Z,20.67
2023-05-19T14:23:37.696Z,20.70
2023-05-19T14:26:41.854Z,20.63
2023-05-19T14:29:45.017Z,20.61
2023-05-19T14:32:48.464Z,20.66
2023-05-19T14:35:53.172Z,20.56
2023-05-19T14:38:56.837Z,20.56
2023-05-19T14:41:59.804Z,20.44
2023-05-19T14:45:02.837Z,20.38
2023-05-19T14:48:06.603Z,20.37
2023-05-19T14:51:09.981Z,20.33
2023-05-19T14:54:13.221Z,20.38
2023-05-19T14:57:17.575Z,20.34
2023-05-19T15:00:20.839Z,20.54
2023-05-19T15:03:23.884Z,20.59
2023-05-19T15:06:27.150Z,20.67
2023-05-19T15:09:30.191Z,20.50
2023-05-19T15:12:33.239Z,20.68
2023-05-19T15:15:36.356Z,20.56
2023-05-19T15:18:39.503Z,20.60
2023-05-19T15:21:44.508Z,20.46
2023-05-19T15:24:47.834Z,20.34
2023-05-19T15:27:51.029Z,20.17
2023-05-19T15:30:54.189Z,20.13
2023-05-19T15:33:57.543Z,20.16
2023-05-19T15:37:01.173Z,20.12
2023-05-19T15:40:05.046Z,20.16
2023-05-19T15:43:08.210Z,20.19
2023-05-19T15:46:13.477Z,20.25
2023-05-19T15:49:18.089Z,20.22
2023-05-19T15:52:21.110Z,20.41
2023-05-19T15:55:24.140Z,20.21
2023-05-19T15:58:27.096Z,20.09
2023-05-19T16:01:30.450Z,20.05
2023-05-19T16:04:33.811Z,20.08
2023-05-19T16:07:37.151Z,20.00
2023-05-19T16:10:40.585Z,19.92
2023-05-19T16:13:43.824Z,19.84
2023-05-19T16:16:47.336Z,19.88
2023-05-19T16:19:50.807Z,19.86
2023-05-19T16:22:55.658Z,19.79
2023-05-19T16:25:59.021Z,19.76
2023-05-19T16:29:02.448Z,19.72
2023-05-19T16:32:05.852Z,19.68
2023-05-19T16:35:09.687Z,19.64
2023-05-19T16:38:12.962Z,19.58
2023-05-19T16:41:16.179Z,19.52
2023-05-19T16:44:19.530Z,19.55
2023-05-19T16:47:22.824Z,19.55
2023-05-19T16:50:26.995Z,19.52
2023-05-19T16:53:31.278Z,19.50
2023-05-19T16:56:34.318Z,19.49
2023-05-19T16:59:37.386Z,19.41
2023-05-19T17:02:40.783Z,19.29
2023-05-19T17:05:44.390Z,19.24
2023-05-19T17:08:47.540Z,19.17
2023-05-19T17:11:52.614Z,19.10
2023-05-19T17:14:55.762Z,19.08
2023-05-19T17:17:59.759Z,19.10
2023-05-19T17:21:05.399Z,19.08
2023-05-19T17:24:08.605Z,19.05
2023-05-19T17:27:12.125Z,19.04
2023-05-19T17:30:17.229Z,19.02
2023-05-19T17:33:20.992Z,19.01
2023-05-19T17:36:24.721Z,18.99
2023-05-19T17:39:27.805Z,18.97
2023-05-19T17:42:31.816Z,18.92
2023-05-19T17:45:35.014Z,18.87
2023-05-19T17:48:41.198Z,18.84
2023-05-19T17:51:48.397Z,18.76
2023-05-19T17:54:51.976Z,18.69
2023-05-19T17:57:55.490Z,18.57
2023-05-19T18:00:59.965Z,18.53
2023-05-19T18:04:04.022Z,18.46
2023-05-19T18:07:09.844Z,18.37
2023-05-19T18:10:15.607Z,18.29
2023-05-19T18:13:18.760Z,18.22
2023-05-19T18:16:22.012Z,18.17
2023-05-19T18:19:25.452Z,18.06
2023-05-19T18:22:29.313Z,17.99
2023-05-19T18:25:33.728Z,17.88
2023-05-19T18:28:37.128Z,17.74
2023-05-19T18:31:41.288Z,17.64
2023-05-19T18:34:44.525Z,17.53
2023-05-19T18:37:47.794Z,17.27
2023-05-19T18:40:52.035Z,17.21
2023-05-19T18:43:55.165Z,16.97
2023-05-19T18:46:58.391Z,16.86
2023-05-19T18:50:01.644Z,16.79
2023-05-19T18:53:05.039Z,16.60
2023-05-19T18:56:11.620Z,16.48
2023-05-19T18:59:14.721Z,16.38
2023-05-19T19:02:17.886Z,16.31
2023-05-19T19:05:21.791Z,16.26
2023-05-19T19:08:25.283Z,16.22
2023-05-19T19:11:31.633Z,16.23
2023-05-19T19:14:34.890Z,16.25
2023-05-19T19:17:40.182Z,16.24
2023-05-19T19:20:43.173Z,16.11
2023-05-19T19:23:46.506Z,16.12
2023-05-19T19:26:49.857Z,16.06
2023-05-19T19:29:54.210Z,15.94
2023-05-19T19:32:57.380Z,15.90
2023-05-19T19:36:01.518Z,15.80
2023-05-19T19:39:04.527Z,15.80
2023-05-19T19:42:07.502Z,15.83
2023-05-19T19:45:13.111Z,15.68
2023-05-19T19:48:18.244Z,15.65
2023-05-19T19:51:21.448Z,15.60
2023-05-19T19:54:24.445Z,15.57
2023-05-19T19:57:29.227Z,15.40
2023-05-19T20:00:32.300Z,15.46
2023-05-19T20:03:35.809Z,15.37
2023-05-19T20:06:39.023Z,15.29
2023-05-19T20:09:48.142Z,15.34
2023-05-19T20:12:51.317Z,15.29
2023-05-19T20:15:54.521Z,15.27
2023-05-19T20:18:57.551Z,15.27
2023-05-19T20:22:00.815Z,15.25
2023-05-19T20:25:04.697Z,15.22
2023-05-19T20:28:08.573Z,15.19
2023-05-19T20:31:11.602Z,15.25
2023-05-19T20:34:15.084Z,15.20
2023-05-19T20:37:18.156Z,15.09
2023-05-19T20:40:21.337Z,15.02
2023-05-19T20:43:24.458Z,14.96
2023-05-19T20:46:28.101Z,14.91
2023-05-19T20:49:31.850Z,14.87
2023-05-19T20:52:35.443Z,14.80
2023-05-19T20:55:39.259Z,14.79
2023-05-19T20:58:42.714Z,14.76
2023-05-19T21:01:46.099Z,14.79
2023-05-19T21:04:49.938Z,14.87
2023-05-19T21:07:53.226Z,14.91
2023-05-19T21:10:57.666Z,14.93
2023-05-19T21:14:04.409Z,14.98
2023-05-19T21:17:07.919Z,14.99
2023-05-19T21:20:11.791Z,15.00
2023-05-19T21:23:15.076Z,14.98
2023-05-19T21:26:22.283Z,14.99
2023-05-19T21:29:27.466Z,15.03
2023-05-19T21:32:30.535Z,15.04
2023-05-19T21:35:33.731Z,15.06
2023-05-19T21:38:39.845Z,15.05
2023-05-19T21:41:43.077Z,14.97
2023-05-19T21:44:46.171Z,14.95
2023-05-19T21:47:49.389Z,14.92
2023-05-19T21:50:56.049Z,14.86
2023-05-19T21:53:59.115Z,14.79
2023-05-19T21:57:02.716Z,14.73
2023-05-19T22:00:06.764Z,14.68
2023-05-19T22:03:14.897Z,14.73
2023-05-19T22:06:18.434Z,14.76
2023-05-19T22:09:25.048Z,14.87
2023-05-19T22:12:28.052Z,14.97
2023-05-19T22:15:31.418Z,15.09
2023-05-19T22:18:34.715Z,15.15
2023-05-19T22:21:41.217Z,15.23
2023-05-19T22:24:44.558Z,15.27
2023-05-19T22:27:47.804Z,15.29
2023-05-19T22:30:50.927Z,15.21
2023-05-19T22:33:54.408Z,15.08
2023-05-19T22:36:57.496Z,15.08
2023-05-19T22:40:00.373Z,15.07
2023-05-19T22:43:03.576Z,15.10
2023-05-19T22:46:06.595Z,15.08
2023-05-19T22:49:09.699Z,15.10
2023-05-19T22:52:13.233Z,15.14
2023-05-19T22:55:16.618Z,15.14
2023-05-19T22:58:19.490Z,15.18
2023-05-19T23:01:22.428Z,15.20
2023-05-19T23:04:25.927Z,15.21
2023-05-19T23:07:29.133Z,15.21
2023-05-19T23:10:32.747Z,15.27
2023-05-19T23:13:35.879Z,15.29
2023-05-19T23:16:38.912Z,15.34
2023-05-19T23:19:41.932Z,15.35
2023-05-19T23:22:44.977Z,15.36
2023-05-19T23:25:48.162Z,15.32
2023-05-19T23:28:51.498Z,15.36
2023-05-19T23:31:54.918Z,15.34
2023-05-19T23:34:58.335Z,15.38
2023-05-19T23:38:01.300Z,15.32
2023-05-19T23:41:05.135Z,15.26
2023-05-19T23:44:08.709Z,15.26
2023-05-19T23:47:11.815Z,15.22
2023-05-19T23:50:14.828Z,15.18
2023-05-19T23:53:20.371Z,15.14
2023-05-19T23:56:23.432Z,15.11
2023-05-19T23:59:26.496Z,15.13
